Time;durP1;ratioP1;P1;durP2;ratioP2;P2;SDS_P1;SDS_P2;PMS_P1;PMS_P2;Temp;Humidity;BMP_temperature;BMP_pressure;BME280_temperature;BME280_humidity;BME280_pressure;Samples;Min_cycle;Max_cycle;Signal;HPM_P1;HPM_P2
2022/02/13 00:00:49;;;;;;;17.23;11.07;;;1.70;99.90;;;;;;5092120;28;20024;-70
2022/02/13 00:03:15;;;;;;;25.13;13.10;;;1.70;99.90;;;;;;5092072;28;20424;-70
2022/02/13 00:05:41;;;;;;;22.70;12.50;;;1.70;99.90;;;;;;5092131;28;20472;-70
2022/02/13 00:08:06;;;;;;;21.27;11.00;;;1.60;99.90;;;;;;5093378;28;20030;-71
2022/02/13 00:10:32;;;;;;;24.50;11.83;;;1.60;99.90;;;;;;5091909;28;20488;-71
2022/02/13 00:12:58;;;;;;;20.55;10.88;;;1.50;99.90;;;;;;5093156;28;20293;-71
2022/02/13 00:15:24;;;;;;;24.50;12.32;;;1.50;99.90;;;;;;5091857;28;20028;-71
2022/02/13 00:17:50;;;;;;;24.77;12.27;;;1.50;99.90;;;;;;5092603;28;20389;-70
2022/02/13 00:20:15;;;;;;;18.90;11.10;;;1.60;99.90;;;;;;5092999;28;20111;-70
2022/02/13 00:22:42;;;;;;;24.37;11.60;;;1.50;99.90;;;;;;5093135;28;20052;-69
2022/02/13 00:25:07;;;;;;;23.13;11.55;;;1.50;99.90;;;;;;5093213;28;20384;-69
2022/02/13 00:27:33;;;;;;;24.83;11.68;;;1.50;99.90;;;;;;5093386;28;20103;-70
2022/02/13 00:29:59;;;;;;;24.10;12.20;;;1.50;99.90;;;;;;5093379;28;20028;-70
2022/02/13 00:32:27;;;;;;;23.67;11.27;;;1.50;99.90;;;;;;5093023;28;20501;-70
2022/02/13 00:34:52;;;;;;;23.33;11.45;;;1.50;99.90;;;;;;5093331;28;20511;-70
2022/02/13 00:37:18;;;;;;;23.43;11.07;;;1.50;99.90;;;;;;5092181;28;20024;-70
2022/02/13 00:39:44;;;;;;;23.83;11.70;;;1.50;99.90;;;;;;5092843;28;20024;-70
2022/02/13 00:42:10;;;;;;;22.37;10.37;;;1.50;99.90;;;;;;5092859;28;20031;-70
2022/02/13 00:44:36;;;;;;;21.52;11.23;;;1.40;99.90;;;;;;5091595;28;20031;-70
2022/02/13 00:47:02;;;;;;;26.33;10.70;;;1.40;99.90;;;;;;5091798;28;20032;-70
2022/02/13 00:49:27;;;;;;;27.30;11.80;;;1.40;99.90;;;;;;5091383;28;20025;-71
2022/02/13 00:51:56;;;;;;;19.10;10.98;;;1.40;99.90;;;;;;5092713;28;20034;-70
2022/02/13 00:54:22;;;;;;;24.13;11.35;;;1.40;99.90;;;;;;5092835;28;20032;-69
2022/02/13 00:56:47;;;;;;;21.63;10.83;;;1.40;99.90;;;;;;5093407;28;20024;-69
2022/02/13 00:59:13;;;;;;;22.37;10.80;;;1.40;99.90;;;;;;5096405;28;20476;-70
2022/02/13 01:01:39;;;;;;;23.37;11.23;;;1.40;99.90;;;;;;5096470;28;20016;-70
2022/02/13 01:04:05;;;;;;;22.67;10.07;;;1.30;99.90;;;;;;5095166;28;20023;-69
2022/02/13 01:06:31;;;;;;;25.08;11.15;;;1.30;99.90;;;;;;5095053;28;20051;-70
2022/02/13 01:08:56;;;;;;;26.05;10.65;;;1.20;99.90;;;;;;5094978;28;20085;-70
2022/02/13 01:11:22;;;;;;;24.07;11.03;;;1.20;99.90;;;;;;5095002;28;20416;-70
2022/02/13 01:13:48;;;;;;;22.10;12.30;;;1.20;99.90;;;;;;5094950;28;20456;-70
2022/02/13 01:16:18;;;;;;;21.27;10.95;;;1.10;99.90;;;;;;5096346;28;20262;-69
2022/02/13 01:18:44;;;;;;;25.05;12.20;;;1.20;99.90;;;;;;5096451;28;20032;-70
2022/02/13 01:21:13;;;;;;;23.95;11.80;;;1.20;99.90;;;;;;5096344;28;20026;-69
2022/02/13 01:23:43;;;;;;;22.48;11.25;;;1.10;99.90;;;;;;5096598;28;20047;-70
2022/02/13 01:26:09;;;;;;;23.17;10.60;;;1.10;99.90;;;;;;5096201;28;20447;-70
2022/02/13 01:28:35;;;;;;;23.45;11.57;;;1.10;99.90;;;;;;5096082;28;20024;-71
2022/02/13 01:31:02;;;;;;;20.33;10.80;;;1.10;99.90;;;;;;5096376;28;20028;-70
2022/02/13 01:33:32;;;;;;;23.60;10.48;;;1.10;99.90;;;;;;5096023;28;20016;-70
2022/02/13 01:35:58;;;;;;;20.95;10.65;;;1.10;99.90;;;;;;5094606;28;20032;-70
2022/02/13 01:38:25;;;;;;;19.33;10.75;;;1.20;99.90;;;;;;5094475;28;20046;-70
2022/02/13 01:40:51;;;;;;;;;;;1.40;99.90;;;;;;5096450;28;20019;-70
2022/02/13 01:43:17;;;;;;;21.92;10.43;;;1.50;99.90;;;;;;5096596;28;20356;-70
2022/02/13 01:45:42;;;;;;;21.03;10.40;;;1.40;99.90;;;;;;5094504;28;20028;-70
2022/02/13 01:48:08;;;;;;;22.20;10.47;;;1.20;99.90;;;;;;5095890;28;20029;-70
2022/02/13 01:50:38;;;;;;;19.13;9.97;;;1.20;99.90;;;;;;5094359;28;20031;-70
2022/02/13 01:53:05;;;;;;;20.50;10.45;;;1.20;99.90;;;;;;5095621;28;20507;-70
2022/02/13 01:55:31;;;;;;;23.77;10.30;;;1.10;99.90;;;;;;5095731;28;20020;-70
2022/02/13 01:57:57;;;;;;;18.10;8.70;;;1.10;99.90;;;;;;5095636;28;20039;-70
2022/02/13 02:00:24;;;;;;;18.17;9.40;;;1.10;99.90;;;;;;5095477;28;20025;-70
2022/02/13 02:02:49;;;;;;;19.77;10.05;;;1.10;99.90;;;;;;5094161;28;20048;-70
2022/02/13 02:05:15;;;;;;;19.73;9.50;;;1.10;99.90;;;;;;5095565;28;20105;-70
2022/02/13 02:07:41;;;;;;;19.60;9.33;;;1.10;99.90;;;;;;5094917;28;20017;-70
2022/02/13 02:10:06;;;;;;;19.37;9.27;;;1.10;99.90;;;;;;5095518;28;20066;-69
2022/02/13 02:12:32;;;;;;;16.97;8.50;;;1.00;99.90;;;;;;5095161;28;20095;-70
2022/02/13 02:14:58;;;;;;;18.40;9.30;;;1.10;99.90;;;;;;5095197;28;20043;-70
2022/02/13 02:17:23;;;;;;;17.80;9.37;;;1.00;99.90;;;;;;5095491;28;20091;-69
2022/02/13 02:19:49;;;;;;;17.70;8.17;;;1.00;99.90;;;;;;5095009;28;20124;-69
2022/02/13 02:22:16;;;;;;;21.23;9.93;;;1.00;99.90;;;;;;5093804;28;20030;-69
2022/02/13 02:24:41;;;;;;;18.25;8.15;;;1.10;99.90;;;;;;5095055;28;20071;-70
2022/02/13 02:27:07;;;;;;;19.60;9.63;;;1.20;99.90;;;;;;5093672;28;20125;-71
2022/02/13 02:29:33;;;;;;;19.88;8.73;;;1.20;99.90;;;;;;5094950;28;20374;-70
2022/02/13 02:31:59;;;;;;;18.73;8.70;;;1.40;99.90;;;;;;5093941;28;20028;-70
2022/02/13 02:34:25;;;;;;;17.92;8.02;;;1.40;99.90;;;;;;5094639;28;20028;-70
2022/02/13 02:36:51;;;;;;;13.70;7.97;;;1.40;99.90;;;;;;5095268;28;20545;-70
2022/02/13 02:39:16;;;;;;;18.37;8.63;;;1.50;99.90;;;;;;5093221;28;20028;-70
2022/02/13 02:41:42;;;;;;;16.47;7.77;;;1.60;99.90;;;;;;5094693;28;20016;-70
2022/02/13 02:44:08;;;;;;;16.70;8.37;;;1.70;99.90;;;;;;5093228;28;20259;-69
2022/02/13 02:46:33;;;;;;;10.03;5.90;;;1.80;99.90;;;;;;5093215;28;20016;-70
2022/02/13 02:48:59;;;;;;;10.67;5.77;;;1.80;99.90;;;;;;5094656;28;20560;-69
2022/02/13 02:51:25;;;;;;;12.00;6.07;;;1.70;99.90;;;;;;5094653;28;20024;-70
2022/02/13 02:53:50;;;;;;;12.10;5.90;;;1.70;99.90;;;;;;5094530;28;20032;-69
2022/02/13 02:56:16;;;;;;;11.55;5.88;;;1.60;99.90;;;;;;5093142;28;20400;-69
2022/02/13 02:58:42;;;;;;;9.70;5.23;;;1.60;99.90;;;;;;5094536;28;20032;-69
2022/02/13 03:01:08;;;;;;;11.75;5.60;;;1.70;99.90;;;;;;5093288;28;20473;-70
2022/02/13 03:03:34;;;;;;;16.03;5.87;;;2.00;99.90;;;;;;5094335;28;20050;-69
2022/02/13 03:06:00;;;;;;;12.90;5.82;;;1.80;99.90;;;;;;5094614;28;20436;-70
2022/02/13 03:08:26;;;;;;;10.38;5.53;;;1.60;99.90;;;;;;5094258;28;20047;-69
2022/02/13 03:10:52;;;;;;;16.60;5.87;;;1.80;99.90;;;;;;5093039;28;20028;-70
2022/02/13 03:13:22;;;;;;;13.50;7.22;;;1.60;99.90;;;;;;5093253;28;20081;-70
2022/02/13 03:15:49;;;;;;;10.18;5.65;;;1.40;99.90;;;;;;5094271;28;20031;-69
2022/02/13 03:18:19;;;;;;;12.15;6.45;;;1.40;99.90;;;;;;5094155;28;20032;-70
2022/02/13 03:20:49;;;;;;;15.20;6.72;;;1.20;99.90;;;;;;5093952;28;20069;-70
2022/02/13 03:23:15;;;;;;;13.68;7.07;;;1.10;99.90;;;;;;5092717;28;20028;-69
2022/02/13 03:25:42;;;;;;;10.32;6.28;;;1.00;99.90;;;;;;5094809;28;20032;-69
2022/02/13 03:28:08;;;;;;;12.48;6.32;;;1.00;99.90;;;;;;5094404;28;20103;-69
2022/02/13 03:30:34;;;;;;;13.38;6.95;;;1.00;99.90;;;;;;5095574;28;20109;-70
2022/02/13 03:33:01;;;;;;;12.55;6.75;;;1.00;99.90;;;;;;5092721;28;20027;-69
2022/02/13 03:35:26;;;;;;;11.68;6.68;;;1.00;99.90;;;;;;5092686;28;20423;-69
2022/02/13 03:37:52;;;;;;;13.30;6.70;;;1.20;99.90;;;;;;5093510;28;20024;-70
2022/02/13 03:40:18;;;;;;;14.50;7.17;;;1.30;99.90;;;;;;5093528;28;20020;-70
2022/02/13 03:42:44;;;;;;;17.20;7.13;;;1.40;99.90;;;;;;5093438;28;20024;-70
2022/02/13 03:45:13;;;;;;;15.13;6.63;;;1.20;99.90;;;;;;5092179;28;20024;-70
2022/02/13 03:47:39;;;;;;;12.50;6.68;;;1.10;99.90;;;;;;5092669;28;20396;-66
2022/02/13 03:50:06;;;;;;;11.73;6.57;;;1.00;99.90;;;;;;5092041;28;20024;-66
2022/02/13 03:52:32;;;;;;;13.38;6.70;;;1.00;99.90;;;;;;5092187;28;20036;-65
2022/02/13 03:55:00;;;;;;;12.70;7.07;;;1.00;99.90;;;;;;5093792;28;20392;-66
2022/02/13 03:57:26;;;;;;;10.77;6.70;;;1.50;99.90;;;;;;5093741;28;20262;-66
2022/02/13 03:59:52;;;;;;;11.40;5.88;;;1.60;99.90;;;;;;5093165;28;20499;-66
2022/02/13 04:02:17;;;;;;;12.75;5.70;;;1.60;99.90;;;;;;5091921;28;20028;-66
2022/02/13 04:04:43;;;;;;;9.73;5.33;;;1.60;99.90;;;;;;5093489;28;20039;-66
2022/02/13 04:07:09;;;;;;;9.53;5.83;;;1.60;99.90;;;;;;5093132;28;20020;-66
2022/02/13 04:09:34;;;;;;;10.83;5.13;;;1.40;99.90;;;;;;5092984;28;20400;-66
2022/02/13 04:12:00;;;;;;;10.07;4.70;;;1.50;99.90;;;;;;5093076;28;20385;-66
2022/02/13 04:14:25;;;;;;;9.83;5.00;;;1.40;99.90;;;;;;5093466;28;20039;-66
2022/02/13 04:16:51;;;;;;;7.57;4.67;;;1.30;99.90;;;;;;5093284;28;20020;-66
2022/02/13 04:19:17;;;;;;;8.30;4.63;;;1.20;99.90;;;;;;5093053;28;20022;-66
2022/02/13 04:21:42;;;;;;;9.27;5.53;;;1.30;99.90;;;;;;5093037;28;20031;-66
2022/02/13 04:24:08;;;;;;;7.80;4.47;;;1.40;99.90;;;;;;5095793;28;20020;-66
2022/02/13 04:26:34;;;;;;;10.63;4.83;;;1.60;99.90;;;;;;5093352;28;20028;-65
2022/02/13 04:28:59;;;;;;;10.57;4.60;;;1.50;99.90;;;;;;5093048;28;20051;-65
2022/02/13 04:31:25;;;;;;;11.63;5.13;;;1.40;99.90;;;;;;5094452;28;20097;-66
2022/02/13 04:33:51;;;;;;;9.67;4.80;;;1.30;99.90;;;;;;5095808;28;20081;-66
2022/02/13 04:36:16;;;;;;;9.40;5.03;;;1.30;99.90;;;;;;5097222;28;20527;-66
2022/02/13 04:38:42;;;;;;;9.57;5.73;;;1.30;99.90;;;;;;5096775;28;20103;-67
2022/02/13 04:41:07;;;;;;;10.80;5.43;;;1.20;99.90;;;;;;5097530;28;20024;-66
2022/02/13 04:43:33;;;;;;;9.90;4.47;;;1.40;99.90;;;;;;5096960;28;20024;-66
2022/02/13 04:45:59;;;;;;;7.50;4.70;;;1.70;99.90;;;;;;5096463;28;20023;-67
2022/02/13 04:48:25;;;;;;;12.50;4.70;;;1.70;99.90;;;;;;5097163;28;20031;-66
2022/02/13 04:50:50;;;;;;;9.75;5.50;;;1.80;99.90;;;;;;5097094;28;20311;-66
2022/02/13 04:53:16;;;;;;;8.73;4.90;;;1.80;99.90;;;;;;5095276;28;20028;-66
2022/02/13 04:55:42;;;;;;;15.67;4.93;;;1.80;99.90;;;;;;5095441;28;20484;-66
2022/02/13 04:58:07;;;;;;;8.60;5.13;;;1.90;99.90;;;;;;5096901;28;20290;-66
2022/02/13 05:00:33;;;;;;;9.47;5.30;;;2.00;99.90;;;;;;5096611;28;20044;-66
2022/02/13 05:02:59;;;;;;;9.23;5.13;;;1.90;99.90;;;;;;5096796;28;20024;-66
2022/02/13 05:05:24;;;;;;;12.43;5.07;;;1.70;99.90;;;;;;5095346;28;20032;-66
2022/02/13 05:07:50;;;;;;;9.73;5.10;;;1.60;99.90;;;;;;5096586;28;20077;-66
2022/02/13 05:10:16;;;;;;;8.50;4.60;;;1.50;99.90;;;;;;5097178;28;20081;-66
2022/02/13 05:12:41;;;;;;;9.97;4.90;;;1.50;99.90;;;;;;5096855;28;20082;-66
2022/02/13 05:15:08;;;;;;;11.90;5.00;;;1.40;99.90;;;;;;5095207;28;20062;-66
2022/02/13 05:17:35;;;;;;;14.77;5.47;;;1.20;99.90;;;;;;5096469;28;20073;-66
2022/02/13 05:20:02;;;;;;;10.75;5.50;;;1.20;99.90;;;;;;5095118;28;20031;-67
2022/02/13 05:22:28;;;;;;;9.77;4.60;;;1.20;99.90;;;;;;5096269;28;20085;-66
2022/02/13 05:24:53;;;;;;;12.20;5.07;;;1.50;99.90;;;;;;5096393;28;20065;-66
2022/02/13 05:27:19;;;;;;;10.33;5.63;;;1.60;99.90;;;;;;5095092;28;20020;-66
2022/02/13 05:29:45;;;;;;;11.00;5.03;;;1.60;99.90;;;;;;5096279;28;20035;-66
2022/02/13 05:32:11;;;;;;;10.67;4.90;;;1.90;99.90;;;;;;5096074;28;20028;-65
2022/02/13 05:34:37;;;;;;;10.35;5.63;;;2.20;99.90;;;;;;5097128;28;20757;-66
2022/02/13 05:37:03;;;;;;;10.33;5.50;;;2.10;99.90;;;;;;5096379;28;20078;-66
2022/02/13 05:39:29;;;;;;;8.60;5.35;;;1.90;99.90;;;;;;5096623;28;20288;-66
2022/02/13 05:41:55;;;;;;;9.60;5.30;;;1.80;99.90;;;;;;5094773;28;20106;-66
2022/02/13 05:44:20;;;;;;;10.37;5.33;;;2.00;99.90;;;;;;5095462;28;20661;-65
2022/02/13 05:46:46;;;;;;;7.57;5.13;;;2.10;99.90;;;;;;5095940;28;20020;-66
2022/02/13 05:49:13;;;;;;;8.70;4.57;;;1.90;99.90;;;;;;5095998;28;20114;-65
2022/02/13 05:51:38;;;;;;;8.65;5.13;;;1.70;99.90;;;;;;5094701;28;20024;-66
2022/02/13 05:54:04;;;;;;;7.23;4.90;;;1.50;99.90;;;;;;5095241;28;20423;-65
2022/02/13 05:56:30;;;;;;;13.67;5.57;;;1.70;99.90;;;;;;5095774;28;20031;-66
2022/02/13 05:58:56;;;;;;;9.07;5.30;;;1.50;99.90;;;;;;5095457;28;20281;-66
2022/02/13 06:01:22;;;;;;;9.33;5.37;;;1.50;99.90;;;;;;5094430;28;20035;-65
2022/02/13 06:03:47;;;;;;;10.05;4.85;;;1.70;99.90;;;;;;5094189;28;20020;-66
2022/02/13 06:06:13;;;;;;;10.10;5.07;;;1.60;99.90;;;;;;5094160;28;20024;-65
2022/02/13 06:08:40;;;;;;;8.80;5.20;;;1.70;99.90;;;;;;5093991;28;20048;-66
2022/02/13 06:11:06;;;;;;;9.30;5.18;;;1.60;99.90;;;;;;5095341;28;20094;-66
2022/02/13 06:13:31;;;;;;;8.43;4.95;;;1.50;99.90;;;;;;5094145;28;20032;-66
2022/02/13 06:15:58;;;;;;;9.13;4.77;;;1.60;99.90;;;;;;5095511;28;20039;-66
2022/02/13 06:18:24;;;;;;;11.25;4.70;;;1.50;99.90;;;;;;5094055;28;20031;-66
2022/02/13 06:20:49;;;;;;;9.63;5.73;;;1.50;99.90;;;;;;5095291;28;20403;-66
2022/02/13 06:23:15;;;;;;;9.93;4.90;;;1.40;99.90;;;;;;5098517;28;20024;-67
2022/02/13 06:25:41;;;;;;;11.87;5.83;;;1.30;99.90;;;;;;5100545;28;20487;-67
2022/02/13 06:28:07;;;;;;;11.70;6.13;;;1.20;99.90;;;;;;5097196;28;20027;-66
2022/02/13 06:30:33;;;;;;;12.90;6.32;;;1.10;99.90;;;;;;5095706;28;20028;-66
2022/02/13 06:33:03;;;;;;;11.85;5.40;;;1.10;99.90;;;;;;5094085;28;20024;-65
2022/02/13 06:35:30;;;;;;;13.38;6.15;;;1.00;99.90;;;;;;5095038;28;20423;-66
2022/02/13 06:37:56;;;;;;;10.82;5.72;;;0.90;99.90;;;;;;5093527;28;20027;-66
2022/02/13 06:40:22;;;;;;;9.95;5.72;;;0.90;99.90;;;;;;5094864;28;20032;-65
2022/02/13 06:42:47;;;;;;;12.45;6.45;;;0.90;99.90;;;;;;5094856;28;20060;-66
2022/02/13 06:45:14;;;;;;;10.20;5.27;;;1.40;99.90;;;;;;5093576;28;20020;-66
2022/02/13 06:47:41;;;;;;;11.65;5.03;;;1.40;99.90;;;;;;5095418;28;20012;-67
2022/02/13 06:50:08;;;;;;;10.80;5.38;;;1.30;99.90;;;;;;5095071;28;20028;-65
2022/02/13 06:52:33;;;;;;;;;;;1.20;99.90;;;;;;5095440;28;20028;-65
2022/02/13 06:54:59;;;;;;;10.90;5.55;;;1.20;99.90;;;;;;5092405;28;19949;-65
2022/02/13 06:57:24;;;;;;;10.10;5.20;;;1.10;99.90;;;;;;5094947;28;20028;-66
2022/02/13 06:59:50;;;;;;;13.03;6.47;;;1.30;99.90;;;;;;5094631;28;20480;-65
2022/02/13 07:02:16;;;;;;;13.03;5.90;;;1.60;99.90;;;;;;5094668;28;20481;-67
2022/02/13 07:04:41;;;;;;;12.53;5.67;;;1.50;99.90;;;;;;5094984;28;20024;-68
2022/02/13 07:07:11;;;;;;;13.13;6.20;;;1.40;99.90;;;;;;5092929;28;20362;-67
2022/02/13 07:09:37;;;;;;;11.75;5.75;;;1.40;99.90;;;;;;5094024;28;20166;-66
2022/02/13 07:12:09;;;;;;;11.18;5.25;;;1.30;99.90;;;;;;5094319;28;20145;-66
2022/02/13 07:14:38;;;;;;;14.73;5.90;;;1.20;99.90;;;;;;5094085;28;20024;-71
2022/02/13 07:17:04;;;;;;;12.02;6.38;;;1.20;99.90;;;;;;5092645;28;20123;-66
2022/02/13 07:19:29;;;;;;;12.40;6.15;;;1.40;99.90;;;;;;5094025;28;20034;-69
2022/02/13 07:21:55;;;;;;;11.27;5.93;;;1.30;99.90;;;;;;5094489;28;20472;-65
2022/02/13 07:24:21;;;;;;;10.93;5.90;;;1.50;99.90;;;;;;5092945;28;20027;-65
2022/02/13 07:26:46;;;;;;;10.70;5.75;;;1.50;99.90;;;;;;5094289;28;20016;-65
2022/02/13 07:29:12;;;;;;;10.30;5.83;;;1.40;99.90;;;;;;5092405;28;20438;-67
2022/02/13 07:31:38;;;;;;;15.03;6.37;;;1.40;99.90;;;;;;5094267;28;20077;-69
2022/02/13 07:34:04;;;;;;;9.47;5.43;;;1.40;99.90;;;;;;5092495;28;20312;-69
2022/02/13 07:36:31;;;;;;;8.52;5.70;;;1.30;99.90;;;;;;5092541;28;20055;-70
2022/02/13 07:38:58;;;;;;;10.48;5.80;;;1.20;99.90;;;;;;5093528;28;20028;-65
2022/02/13 07:41:25;;;;;;;9.68;5.90;;;1.30;99.90;;;;;;5093885;28;20157;-61
2022/02/13 07:43:52;;;;;;;11.75;6.40;;;1.30;99.90;;;;;;5093631;28;20043;-64
2022/02/13 07:46:18;;;;;;;11.43;6.18;;;1.70;99.90;;;;;;5093455;28;20012;-63
2022/02/13 07:48:43;;;;;;;9.07;5.68;;;2.10;99.90;;;;;;5093442;28;20032;-63
2022/02/13 07:51:09;;;;;;;15.00;7.00;;;2.00;99.90;;;;;;5092104;28;20036;-63
2022/02/13 07:53:38;;;;;;;12.15;6.30;;;2.00;99.90;;;;;;5093546;28;20054;-63
2022/02/13 07:56:05;;;;;;;10.35;5.75;;;1.90;99.90;;;;;;5092141;28;20035;-64
2022/02/13 07:58:34;;;;;;;13.05;6.97;;;1.80;99.90;;;;;;5093223;28;20031;-63
2022/02/13 08:01:00;;;;;;;18.27;7.82;;;1.90;99.90;;;;;;5093396;28;20030;-64
2022/02/13 08:03:27;;;;;;;12.32;6.28;;;2.40;99.90;;;;;;5093534;28;20081;-63
2022/02/13 08:05:53;;;;;;;13.13;6.95;;;2.30;99.90;;;;;;5093254;28;20020;-63
2022/02/13 08:08:19;;;;;;;9.65;6.38;;;2.20;99.90;;;;;;5093277;28;20071;-63
2022/02/13 08:10:44;;;;;;;12.75;6.95;;;2.50;99.90;;;;;;5093302;28;20074;-63
2022/02/13 08:13:10;;;;;;;12.50;6.70;;;2.40;99.90;;;;;;5093400;28;20035;-62
2022/02/13 08:15:36;;;;;;;11.02;6.35;;;2.40;99.90;;;;;;5093663;28;20039;-64
2022/02/13 08:18:12;;;;;;;9.77;6.57;;;2.50;99.90;;;;;;5095807;28;20330;-63
2022/02/13 08:20:38;;;;;;;13.02;6.65;;;2.70;99.90;;;;;;5093660;28;20476;-62
2022/02/13 08:23:04;;;;;;;11.02;6.32;;;2.80;99.90;;;;;;5094194;28;20024;-63
2022/02/13 08:25:30;;;;;;;11.63;6.45;;;2.80;99.90;;;;;;5093204;28;20024;-62
2022/02/13 08:27:56;;;;;;;13.82;6.15;;;2.80;99.90;;;;;;5093457;28;20147;-62
2022/02/13 08:30:22;;;;;;;11.43;6.20;;;2.70;99.90;;;;;;5091829;28;20020;-61
2022/02/13 08:32:47;;;;;;;9.60;6.15;;;2.60;99.90;;;;;;5093195;28;20028;-63
2022/02/13 08:35:13;;;;;;;12.97;6.47;;;2.60;99.90;;;;;;5092683;28;20477;-63
2022/02/13 08:37:39;;;;;;;9.80;6.30;;;2.60;99.90;;;;;;5093937;28;20073;-65
2022/02/13 08:40:05;;;;;;;12.53;6.60;;;2.60;99.90;;;;;;5094035;28;20440;-64
2022/02/13 08:42:31;;;;;;;10.45;6.28;;;2.60;99.90;;;;;;5094035;28;20024;-62
2022/02/13 08:44:56;;;;;;;12.23;5.93;;;2.70;99.90;;;;;;5093509;28;20538;-63
2022/02/13 08:47:22;;;;;;;12.03;6.57;;;2.70;99.90;;;;;;5093116;28;20496;-63
2022/02/13 08:49:49;;;;;;;11.80;6.73;;;2.80;99.90;;;;;;5092735;28;20043;-61
2022/02/13 08:52:16;;;;;;;9.88;5.80;;;2.90;99.90;;;;;;5092872;28;20099;-62
2022/02/13 08:54:42;;;;;;;14.65;6.82;;;2.90;99.90;;;;;;5093807;28;20069;-64
2022/02/13 08:57:07;;;;;;;14.23;7.17;;;3.00;99.90;;;;;;5094176;28;20028;-62
2022/02/13 08:59:33;;;;;;;11.20;6.60;;;3.00;99.90;;;;;;5093057;28;20040;-62
2022/02/13 09:01:59;;;;;;;15.53;6.47;;;3.00;99.90;;;;;;5092780;28;20329;-64
2022/02/13 09:04:24;;;;;;;10.67;6.80;;;3.20;99.90;;;;;;5093049;28;20507;-63
2022/02/13 09:06:50;;;;;;;12.00;6.43;;;3.30;99.90;;;;;;5092727;28;20088;-64
2022/02/13 09:09:16;;;;;;;16.80;7.75;;;3.50;99.90;;;;;;5092404;28;20040;-64
2022/02/13 09:11:42;;;;;;;14.98;7.57;;;3.50;99.90;;;;;;5093027;28;20388;-63
2022/02/13 09:14:09;;;;;;;13.45;7.50;;;3.60;99.90;;;;;;5091411;28;20032;-62
2022/02/13 09:16:35;;;;;;;14.05;7.70;;;3.70;99.90;;;;;;5092897;28;20024;-63
2022/02/13 09:19:01;;;;;;;14.25;7.63;;;3.70;99.90;;;;;;5094809;28;20024;-63
2022/02/13 09:21:27;;;;;;;13.80;7.30;;;3.80;99.90;;;;;;5096735;28;20075;-64
2022/02/13 09:23:54;;;;;;;13.57;7.57;;;3.80;99.90;;;;;;5096557;28;20321;-64
2022/02/13 09:26:20;;;;;;;13.98;8.40;;;3.90;99.90;;;;;;5096235;28;20038;-63
2022/02/13 09:28:45;;;;;;;13.17;7.43;;;4.00;99.90;;;;;;5094801;28;20023;-63
2022/02/13 09:31:11;;;;;;;13.27;7.80;;;4.10;99.90;;;;;;5094660;28;20024;-63
2022/02/13 09:33:36;;;;;;;11.20;7.63;;;4.20;99.90;;;;;;5094657;28;20465;-63
2022/02/13 09:36:03;;;;;;;16.07;7.53;;;4.30;99.90;;;;;;5096140;28;20031;-61
2022/02/13 09:38:29;;;;;;;;;;;4.30;99.90;;;;;;5094857;28;20032;-63
2022/02/13 09:40:54;;;;;;;15.55;7.10;;;4.50;99.90;;;;;;5095935;28;20025;-62
2022/02/13 09:43:21;;;;;;;15.97;7.67;;;5.40;99.90;;;;;;5095767;28;20469;-63
2022/02/13 09:45:50;;;;;;;14.18;7.60;;;6.70;99.90;;;;;;5094594;28;20392;-62
2022/02/13 09:48:18;;;;;;;12.90;6.55;;;8.20;99.90;;;;;;5096325;28;20104;-63
2022/02/13 09:50:44;;;;;;;13.20;6.78;;;9.80;98.30;;;;;;5095825;28;20473;-63
2022/02/13 09:53:10;;;;;;;13.38;6.55;;;11.00;95.00;;;;;;5094327;28;20039;-63
2022/02/13 09:55:36;;;;;;;9.90;5.78;;;12.30;91.80;;;;;;5095627;28;20197;-63
2022/02/13 09:58:04;;;;;;;11.63;6.88;;;13.70;86.80;;;;;;5095488;28;20024;-63
2022/02/13 10:00:52;;;;;;;9.98;6.65;;;14.20;81.40;;;;;;5095511;28;20023;-64
2022/02/13 10:03:28;;;;;;;11.63;7.25;;;14.10;80.30;;;;;;5095739;28;20024;-63
2022/02/13 10:05:58;;;;;;;10.55;6.82;;;13.60;80.30;;;;;;5096038;28;20516;-63
2022/02/13 10:08:32;;;;;;;11.68;6.97;;;13.30;80.90;;;;;;5095222;28;20085;-64
2022/02/13 10:11:28;;;;;;;11.13;6.97;;;12.70;84.10;;;;;;5095721;28;20129;-64
2022/02/13 10:14:16;;;;;;;10.82;7.10;;;12.70;84.60;;;;;;5095950;28;20020;-63
2022/02/13 10:16:45;;;;;;;10.50;7.20;;;13.30;83.00;;;;;;5095170;28;20032;-63
2022/02/13 10:19:11;;;;;;;11.45;7.05;;;13.50;82.00;;;;;;5093684;28;20485;-63
2022/02/13 10:21:51;;;;;;;11.07;7.07;;;14.30;78.60;;;;;;5094903;28;20422;-64
2022/02/13 10:24:29;;;;;;;10.75;6.32;;;14.60;78.10;;;;;;5095466;28;20016;-64
2022/02/13 10:26:57;;;;;;;10.88;6.63;;;15.70;73.50;;;;;;5095189;28;20050;-64
2022/02/13 10:29:27;;;;;;;11.10;6.30;;;16.10;71.40;;;;;;5093516;28;20102;-64
2022/02/13 10:32:08;;;;;;;10.77;7.00;;;16.50;69.40;;;;;;5095137;28;20051;-64
2022/02/13 10:34:34;;;;;;;17.48;7.65;;;17.50;67.60;;;;;;5094100;28;20552;-64
2022/02/13 10:36:59;;;;;;;11.73;6.97;;;18.80;66.30;;;;;;5095412;28;20066;-64
2022/02/13 10:39:26;;;;;;;8.95;6.30;;;20.10;61.30;;;;;;5094893;28;20028;-63
2022/02/13 10:41:54;;;;;;;8.45;6.22;;;21.40;58.90;;;;;;5094859;28;20073;-63
2022/02/13 10:44:28;;;;;;;10.48;6.55;;;23.10;56.00;;;;;;5095135;28;20023;-64
2022/02/13 10:46:54;;;;;;;9.63;6.50;;;23.60;53.50;;;;;;5095603;28;20024;-64
2022/02/13 10:49:20;;;;;;;10.23;6.47;;;24.30;52.10;;;;;;5095386;28;20038;-64
2022/02/13 10:51:46;;;;;;;;;;;23.70;50.40;;;;;;5096112;28;20103;-64
2022/02/13 10:54:12;;;;;;;11.40;6.57;;;23.80;50.10;;;;;;5098170;28;20410;-64
2022/02/13 10:56:39;;;;;;;9.68;6.10;;;23.20;51.40;;;;;;5098449;28;20031;-65
2022/02/13 10:59:09;;;;;;;8.38;6.60;;;24.30;50.60;;;;;;5097613;28;20028;-64
2022/02/13 11:01:35;;;;;;;9.77;6.80;;;25.30;48.30;;;;;;5097171;28;20065;-64
2022/02/13 11:04:03;;;;;;;12.48;6.93;;;25.80;48.10;;;;;;5096025;28;20025;-65
2022/02/13 11:06:34;;;;;;;9.23;6.38;;;26.40;47.30;;;;;;5093251;28;20062;-64
2022/02/13 11:09:27;;;;;;;11.10;6.07;;;26.40;46.70;;;;;;5094376;28;20127;-66
2022/02/13 11:11:57;;;;;;;9.55;5.78;;;24.90;47.20;;;;;;5094206;28;20028;-66
2022/02/13 11:14:30;;;;;;;7.85;5.57;;;23.90;48.80;;;;;;5092926;28;20093;-73
2022/02/13 11:16:57;;;;;;;9.48;5.85;;;22.50;50.10;;;;;;5093101;28;20429;-72
2022/02/13 11:19:24;;;;;;;11.30;6.25;;;20.60;52.50;;;;;;5094387;28;20127;-69
2022/02/13 11:21:50;;;;;;;10.32;6.60;;;19.20;54.50;;;;;;5096027;28;20472;-67
2022/02/13 11:24:34;;;;;;;12.75;7.38;;;17.70;57.10;;;;;;5098156;28;20038;-68
2022/02/13 11:27:02;;;;;;;11.40;6.65;;;16.30;59.70;;;;;;5094500;28;20104;-69
2022/02/13 11:30:01;;;;;;;11.90;6.95;;;15.10;63.20;;;;;;5094086;28;20108;-68
2022/02/13 11:32:45;;;;;;;11.50;6.57;;;13.90;68.00;;;;;;5086095;28;20056;-66
2022/02/13 11:35:12;;;;;;;11.15;6.85;;;13.10;70.90;;;;;;5094126;28;20499;-64
2022/02/13 11:37:44;;;;;;;9.60;6.05;;;12.70;74.10;;;;;;5092593;28;20431;-65
2022/02/13 11:40:35;;;;;;;11.70;6.43;;;12.30;75.90;;;;;;5093845;28;20464;-65
2022/02/13 11:43:03;;;;;;;14.30;7.18;;;12.00;78.90;;;;;;5096428;28;20028;-71
2022/02/13 11:45:48;;;;;;;10.55;6.72;;;11.70;81.20;;;;;;5095956;28;20027;-70
2022/02/13 11:48:40;;;;;;;11.52;6.45;;;11.40;83.20;;;;;;5094478;28;20017;-66
2022/02/13 11:51:07;;;;;;;12.98;6.95;;;11.20;85.00;;;;;;5093972;28;20057;-66
2022/02/13 11:53:39;;;;;;;10.80;6.30;;;11.10;86.70;;;;;;5093648;28;20385;-66
2022/02/13 11:56:28;;;;;;;10.82;6.72;;;11.00;87.80;;;;;;5094216;28;20027;-67
2022/02/13 11:58:55;;;;;;;11.95;7.20;;;10.80;89.00;;;;;;5093555;28;20020;-67
2022/02/13 12:01:36;;;;;;;11.20;6.68;;;10.70;90.30;;;;;;5093767;28;20027;-66
2022/02/13 12:04:02;;;;;;;11.32;6.70;;;10.60;91.00;;;;;;5093574;28;20027;-64
2022/02/13 12:06:29;;;;;;;10.65;5.90;;;10.40;91.00;;;;;;5093739;28;20061;-62
2022/02/13 12:08:57;;;;;;;14.30;7.30;;;10.30;91.30;;;;;;5092016;28;20035;-63
2022/02/13 12:11:29;;;;;;;12.43;7.20;;;10.30;92.00;;;;;;5093376;28;20385;-65
2022/02/13 12:13:55;;;;;;;15.13;6.28;;;10.30;91.60;;;;;;5091939;28;20388;-64
2022/02/13 12:16:25;;;;;;;10.40;6.67;;;10.30;91.90;;;;;;5093462;28;20024;-64
2022/02/13 12:18:51;;;;;;;13.13;6.55;;;10.20;92.40;;;;;;5093280;28;20103;-64
2022/02/13 12:21:17;;;;;;;12.38;6.32;;;10.30;92.80;;;;;;5093125;28;20532;-65
2022/02/13 12:23:42;;;;;;;13.10;6.87;;;10.30;92.80;;;;;;5093026;28;20025;-65
2022/02/13 12:26:08;;;;;;;11.18;6.30;;;10.40;92.70;;;;;;5093342;28;20099;-64
2022/02/13 12:28:36;;;;;;;14.67;6.70;;;10.50;92.80;;;;;;5093446;28;20055;-65
2022/02/13 12:31:04;;;;;;;12.68;6.38;;;10.50;92.90;;;;;;5091888;28;20816;-64
2022/02/13 12:33:31;;;;;;;12.10;6.53;;;10.70;92.70;;;;;;5092894;28;20032;-64
2022/02/13 12:35:58;;;;;;;13.80;6.10;;;10.70;92.90;;;;;;5093363;28;20024;-64
2022/02/13 12:38:26;;;;;;;12.15;6.40;;;10.80;92.60;;;;;;5092943;28;20445;-69
2022/02/13 12:40:56;;;;;;;10.75;6.47;;;10.80;92.50;;;;;;5093067;28;20035;-69
2022/02/13 12:43:24;;;;;;;11.25;5.72;;;10.90;92.40;;;;;;5093177;28;20019;-69
2022/02/13 12:45:51;;;;;;;11.77;5.65;;;11.00;92.50;;;;;;5091984;28;20024;-68